createdAt,value
2023-04-21T00:01:00.261Z,10.73
2023-04-21T00:03:22.382Z,9.90
2023-04-21T00:05:27.294Z,10.80
2023-04-21T00:07:47.431Z,10.85
2023-04-21T00:09:51.652Z,10.85
2023-04-21T00:11:56.149Z,10.20
2023-04-21T00:14:00.343Z,10.45
2023-04-21T00:16:02.800Z,10.43
2023-04-21T00:18:07.129Z,10.80
2023-04-21T00:20:10.695Z,10.70
2023-04-21T00:22:15.047Z,9.95
2023-04-21T00:24:19.084Z,10.13
2023-04-21T00:26:23.416Z,10.98
2023-04-21T00:28:43.785Z,10.35
2023-04-21T00:30:47.820Z,10.32
2023-04-21T00:32:49.258Z,11.02
2023-04-21T00:34:50.854Z,10.27
2023-04-21T00:36:52.444Z,11.18
2023-04-21T00:38:54.174Z,11.90
2023-04-21T00:40:55.685Z,11.55
2023-04-21T00:42:57.119Z,12.13
2023-04-21T00:44:58.584Z,12.10
2023-04-21T00:47:00.135Z,12.15
2023-04-21T00:49:05.916Z,11.43
2023-04-21T00:51:10.103Z,10.80
2023-04-21T00:53:15.162Z,11.73
2023-04-21T00:55:16.835Z,11.40
2023-04-21T00:57:18.907Z,11.20
2023-04-21T00:59:21.191Z,12.30
2023-04-21T01:01:25.677Z,11.60
2023-04-21T01:03:28.370Z,12.43
2023-04-21T01:05:33.044Z,13.95
2023-04-21T01:07:34.762Z,12.88
2023-04-21T01:09:39.018Z,12.25
2023-04-21T01:11:40.707Z,12.30
2023-04-21T01:13:44.916Z,12.40
2023-04-21T01:15:46.573Z,13.68
2023-04-21T01:17:54.160Z,13.07
2023-04-21T01:20:00.489Z,13.02
2023-04-21T01:22:03.434Z,12.97
2023-04-21T01:24:07.721Z,11.73
2023-04-21T01:26:12.004Z,13.30
2023-04-21T01:28:21.033Z,13.40
2023-04-21T01:32:42.531Z,13.85
2023-04-21T01:34:47.079Z,12.80
2023-04-21T01:36:48.475Z,12.50
2023-04-21T01:38:50.026Z,14.00
2023-04-21T01:40:52.606Z,12.65
2023-04-21T01:42:56.818Z,14.13
2023-04-21T01:45:01.180Z,13.40
2023-04-21T01:47:06.556Z,14.73
2023-04-21T01:49:08.028Z,14.27
2023-04-21T01:51:09.469Z,14.88
2023-04-21T01:53:13.727Z,13.93
2023-04-21T01:55:15.360Z,13.57
2023-04-21T01:57:36.195Z,14.25
2023-04-21T01:59:40.618Z,13.50
2023-04-21T02:01:45.209Z,14.35
2023-04-21T02:03:49.874Z,15.25
2023-04-21T02:05:51.452Z,12.93
2023-04-21T02:09:56.904Z,14.07
2023-04-21T02:11:58.483Z,14.10
2023-04-21T02:13:59.970Z,14.88
2023-04-21T02:16:13.519Z,16.10
2023-04-21T02:18:18.311Z,15.05
2023-04-21T02:20:22.857Z,15.00
2023-04-21T02:22:27.259Z,15.05
2023-04-21T02:24:31.676Z,15.20
2023-04-21T02:26:51.745Z,15.18
2023-04-21T02:28:55.840Z,14.93
2023-04-21T02:31:00.528Z,13.63
2023-04-21T02:33:04.226Z,15.40
2023-04-21T02:35:18.348Z,13.85
2023-04-21T02:37:32.409Z,14.88
2023-04-21T02:39:45.815Z,15.70
2023-04-21T02:41:59.413Z,15.55
2023-04-21T02:44:08.760Z,17.02
2023-04-21T02:46:18.881Z,14.80
2023-04-21T02:48:27.885Z,15.10
2023-04-21T02:50:39.462Z,15.90
2023-04-21T02:52:53.499Z,16.48
2023-04-21T02:55:06.575Z,16.88
2023-04-21T02:57:15.706Z,15.70
2023-04-21T02:59:26.200Z,15.90
2023-04-21T03:01:38.023Z,16.20
2023-04-21T03:03:51.186Z,15.82
2023-04-21T03:06:08.729Z,16.75
2023-04-21T03:08:19.793Z,16.42
2023-04-21T03:10:22.660Z,16.63
2023-04-21T03:12:24.103Z,18.55
2023-04-21T03:14:25.599Z,17.75
2023-04-21T03:16:28.092Z,19.20
2023-04-21T03:18:29.598Z,17.95
2023-04-21T03:20:34.007Z,18.73
2023-04-21T03:22:35.807Z,16.35
2023-04-21T03:24:40.746Z,18.13
2023-04-21T03:26:42.267Z,16.92
2023-04-21T03:30:50.580Z,16.43
2023-04-21T03:32:58.800Z,18.20
2023-04-21T03:35:00.311Z,17.38
2023-04-21T03:37:04.502Z,16.13
2023-04-21T03:41:22.083Z,18.17
2023-04-21T03:43:23.569Z,19.92
2023-04-21T03:45:43.841Z,17.77
2023-04-21T03:47:45.343Z,18.60
2023-04-21T03:49:46.812Z,18.50
2023-04-21T03:52:07.014Z,18.30
2023-04-21T03:54:08.606Z,17.83
2023-04-21T03:56:12.975Z,18.92
2023-04-21T03:58:17.436Z,19.30
2023-04-21T04:00:22.104Z,17.42
2023-04-21T04:02:26.328Z,19.25
2023-04-21T04:04:30.812Z,19.85
2023-04-21T04:06:33.219Z,18.90
2023-04-21T04:08:34.891Z,19.90
2023-04-21T04:10:39.202Z,18.77
2023-04-21T04:12:59.540Z,19.17
2023-04-21T04:15:03.954Z,19.08
2023-04-21T04:17:05.421Z,19.63
2023-04-21T04:21:11.081Z,17.58
2023-04-21T04:23:31.849Z,19.95
2023-04-21T04:25:33.417Z,20.52
2023-04-21T04:29:58.409Z,19.48
2023-04-21T04:32:01.800Z,21.00
2023-04-21T04:34:24.499Z,20.73
2023-04-21T04:36:28.550Z,22.40
2023-04-21T04:38:30.347Z,21.42
2023-04-21T04:40:33.262Z,21.77
2023-04-21T04:42:34.787Z,22.13
2023-04-21T04:44:38.950Z,22.35
2023-04-21T04:46:40.772Z,22.25
2023-04-21T04:48:42.225Z,21.67
2023-04-21T04:50:44.049Z,24.13
2023-04-21T04:52:47.033Z,23.08
2023-04-21T04:54:48.661Z,22.60
2023-04-21T04:56:50.270Z,23.27
2023-04-21T04:58:51.726Z,23.65
2023-04-21T05:00:55.886Z,22.50
2023-04-21T05:03:00.402Z,22.55
2023-04-21T05:05:05.726Z,23.33
2023-04-21T05:07:07.835Z,24.55
2023-04-21T05:09:10.298Z,24.05
2023-04-21T05:11:11.784Z,24.73
2023-04-21T05:13:13.280Z,25.60
2023-04-21T05:15:18.166Z,25.20
2023-04-21T05:17:19.703Z,24.08
2023-04-21T05:19:21.079Z,23.55
2023-04-21T05:21:27.837Z,25.38
2023-04-21T05:23:32.159Z,25.13
2023-04-21T05:25:33.700Z,25.15
2023-04-21T05:29:42.113Z,24.08
2023-04-21T05:31:46.536Z,25.20
2023-04-21T05:33:53.973Z,24.48
2023-04-21T05:36:14.340Z,25.00
2023-04-21T05:40:32.444Z,22.90
2023-04-21T05:42:56.304Z,22.85
2023-04-21T05:45:18.609Z,24.30
2023-04-21T05:47:22.311Z,23.17
2023-04-21T05:49:26.545Z,22.80
2023-04-21T05:51:30.701Z,23.00
2023-04-21T05:55:40.365Z,22.25
2023-04-21T05:57:46.850Z,21.13
2023-04-21T05:59:53.860Z,21.48
2023-04-21T06:01:57.713Z,19.30
2023-04-21T06:04:02.286Z,21.67
2023-04-21T06:06:07.850Z,20.48
2023-04-21T06:08:11.984Z,21.83
2023-04-21T06:10:18.847Z,20.05
2023-04-21T06:12:22.873Z,19.27
2023-04-21T06:14:29.591Z,19.60
2023-04-21T06:16:34.145Z,17.95
2023-04-21T06:20:37.179Z,18.13
2023-04-21T06:22:41.500Z,18.17
2023-04-21T06:24:45.765Z,18.02
2023-04-21T06:26:50.062Z,16.73
2023-04-21T06:28:54.421Z,18.50
2023-04-21T06:30:59.429Z,18.42
2023-04-21T06:33:01.227Z,17.95
2023-04-21T06:35:02.748Z,16.73
2023-04-21T06:37:06.948Z,17.85
2023-04-21T06:39:11.214Z,18.50
2023-04-21T06:41:15.368Z,17.90
2023-04-21T06:45:21.052Z,15.63
2023-04-21T06:47:25.182Z,15.52
2023-04-21T06:49:26.740Z,15.60
2023-04-21T06:51:46.702Z,15.00
2023-04-21T06:53:51.215Z,15.90
2023-04-21T06:55:55.836Z,15.25
2023-04-21T06:57:57.250Z,13.18
2023-04-21T07:00:01.881Z,13.18
2023-04-21T07:02:21.761Z,13.52
2023-04-21T07:04:23.997Z,13.88
2023-04-21T07:06:28.009Z,13.23
2023-04-21T07:08:32.370Z,13.68
2023-04-21T07:10:33.835Z,13.57
2023-04-21T07:14:42.107Z,13.43
2023-04-21T07:16:46.485Z,12.13
2023-04-21T07:18:48.876Z,12.85
2023-04-21T07:20:53.284Z,13.25
2023-04-21T07:22:57.635Z,11.52
2023-04-21T07:27:26.897Z,11.20
2023-04-21T07:29:31.222Z,11.00
2023-04-21T07:31:36.003Z,12.10
2023-04-21T07:33:40.658Z,9.68
2023-04-21T07:35:42.286Z,10.27
2023-04-21T07:37:46.679Z,10.82
2023-04-21T07:40:10.598Z,9.95
2023-04-21T07:42:15.055Z,10.13
2023-04-21T07:44:19.594Z,10.38
2023-04-21T07:46:29.960Z,10.43
2023-04-21T07:48:31.535Z,11.30
2023-04-21T07:50:33.210Z,11.20
2023-04-21T07:52:34.683Z,10.88
2023-04-21T07:54:38.877Z,11.15
2023-04-21T07:56:43.209Z,11.60
2023-04-21T07:58:44.845Z,11.60
2023-04-21T08:00:46.413Z,11.23
2023-04-21T08:02:48.191Z,10.68
2023-04-21T08:05:08.726Z,10.88
2023-04-21T08:07:10.533Z,11.32
2023-04-21T08:09:12.171Z,9.57
2023-04-21T08:11:32.142Z,10.38
2023-04-21T08:13:33.778Z,12.15
2023-04-21T08:15:35.323Z,11.15
2023-04-21T08:17:37.043Z,11.85
2023-04-21T08:19:41.167Z,11.10
2023-04-21T08:21:46.062Z,11.70
2023-04-21T08:23:47.569Z,10.48
2023-04-21T08:25:51.890Z,11.70
2023-04-21T08:27:53.390Z,11.50
2023-04-21T08:29:57.761Z,11.68
2023-04-21T08:32:01.968Z,11.60
2023-04-21T08:34:07.266Z,10.55
2023-04-21T08:36:18.249Z,12.30
2023-04-21T08:38:23.722Z,11.32
2023-04-21T08:40:32.747Z,10.68
2023-04-21T08:42:34.942Z,12.30
2023-04-21T08:44:37.205Z,12.00
2023-04-21T08:46:44.513Z,11.50
2023-04-21T08:48:57.372Z,12.43
2023-04-21T08:51:07.537Z,10.85
2023-04-21T08:53:17.560Z,11.88
2023-04-21T08:55:22.450Z,10.52
2023-04-21T08:57:26.808Z,12.00
2023-04-21T08:59:35.145Z,12.50
2023-04-21T09:02:03.913Z,10.90
2023-04-21T09:04:25.583Z,11.10
2023-04-21T09:06:47.224Z,11.82
2023-04-21T09:09:02.640Z,12.38
2023-04-21T09:11:20.948Z,12.23
2023-04-21T09:13:38.493Z,13.02
2023-04-21T09:15:45.212Z,12.20
2023-04-21T09:18:00.854Z,12.85
2023-04-21T09:20:24.486Z,12.82
2023-04-21T09:24:34.820Z,13.05
2023-04-21T09:26:36.950Z,12.65
2023-04-21T09:28:42.838Z,12.55
2023-04-21T09:30:46.955Z,14.93
2023-04-21T09:32:55.915Z,11.95
2023-04-21T09:35:16.643Z,12.52
2023-04-21T09:37:24.284Z,11.88
2023-04-21T09:39:40.581Z,13.32
2023-04-21T09:41:47.364Z,12.07
2023-04-21T09:43:54.673Z,12.48
2023-04-21T09:45:56.487Z,12.60
2023-04-21T09:48:00.511Z,12.52
2023-04-21T09:52:18.351Z,11.82
2023-04-21T09:54:34.087Z,11.52
2023-04-21T09:56:37.316Z,12.82
2023-04-21T09:58:46.860Z,13.32
2023-04-21T10:00:51.888Z,13.45
2023-04-21T10:03:13.936Z,14.63
2023-04-21T10:05:15.758Z,13.32
2023-04-21T10:07:20.528Z,13.18
2023-04-21T10:09:24.012Z,12.60
2023-04-21T10:11:28.285Z,13.25
2023-04-21T10:13:30.253Z,12.43
2023-04-21T10:15:37.821Z,13.05
2023-04-21T10:17:39.460Z,14.55
2023-04-21T10:19:50.824Z,13.80
2023-04-21T10:21:58.145Z,12.70
2023-04-21T10:24:18.359Z,13.50
2023-04-21T10:26:24.451Z,12.85
2023-04-21T10:28:38.863Z,13.05
2023-04-21T10:30:43.276Z,12.77
2023-04-21T10:32:46.358Z,13.73
2023-04-21T10:34:49.217Z,14.20
2023-04-21T10:36:56.746Z,13.45
2023-04-21T10:39:00.982Z,16.13
2023-04-21T10:41:23.616Z,14.70
2023-04-21T10:43:48.128Z,15.30
2023-04-21T10:45:51.008Z,14.40
2023-04-21T10:47:53.226Z,12.68
2023-04-21T10:49:58.233Z,13.02
2023-04-21T10:52:02.999Z,11.85
2023-04-21T10:54:07.984Z,12.70
2023-04-21T10:56:12.040Z,12.50
2023-04-21T10:58:15.596Z,12.43
2023-04-21T11:00:18.988Z,11.77
2023-04-21T11:02:21.468Z,11.85
2023-04-21T11:04:26.385Z,11.40
2023-04-21T11:06:28.607Z,10.10
2023-04-21T11:08:32.705Z,10.18
2023-04-21T11:10:56.100Z,11.32
2023-04-21T11:12:58.074Z,10.23
2023-04-21T11:14:59.701Z,9.80
2023-04-21T11:17:05.353Z,10.57
2023-04-21T11:19:09.914Z,8.85
2023-04-21T11:21:20.196Z,9.32
2023-04-21T11:23:24.495Z,9.75
2023-04-21T11:25:29.787Z,8.52
2023-04-21T11:27:31.307Z,8.57
2023-04-21T11:29:35.823Z,8.18
2023-04-21T11:31:37.931Z,7.13
2023-04-21T11:33:42.503Z,6.15
2023-04-21T11:35:44.089Z,7.35
2023-04-21T11:38:06.898Z,7.65
2023-04-21T11:40:11.189Z,7.82
2023-04-21T11:42:22.609Z,5.82
2023-04-21T11:44:36.367Z,6.05
2023-04-21T11:46:46.943Z,6.35
2023-04-21T11:49:08.377Z,6.28
2023-04-21T11:51:18.746Z,5.85
2023-04-21T11:53:25.945Z,4.50
2023-04-21T11:55:55.129Z,6.40
2023-04-21T11:58:07.379Z,7.00
2023-04-21T12:00:21.678Z,7.90
2023-04-21T12:02:30.892Z,7.35
2023-04-21T12:04:41.648Z,8.80
2023-04-21T12:07:01.117Z,8.30
2023-04-21T12:09:11.120Z,8.10
2023-04-21T12:11:23.771Z,8.63
2023-04-21T12:13:36.745Z,9.13
2023-04-21T12:15:46.767Z,8.27
2023-04-21T12:17:59.853Z,8.80
2023-04-21T12:20:10.622Z,10.00
2023-04-21T12:22:21.520Z,8.40
2023-04-21T12:24:31.355Z,8.10
2023-04-21T12:26:43.417Z,7.72
2023-04-21T12:30:52.985Z,7.93
2023-04-21T12:32:55.875Z,8.63
2023-04-21T12:34:57.695Z,7.90
2023-04-21T12:36:59.346Z,8.48
2023-04-21T12:39:03.769Z,9.05
2023-04-21T12:41:05.911Z,8.60
2023-04-21T12:43:07.843Z,9.40
2023-04-21T12:45:09.497Z,8.27
2023-04-21T12:47:11.330Z,6.18
2023-04-21T12:49:17.225Z,5.65
2023-04-21T12:51:18.700Z,6.28
2023-04-21T12:53:38.653Z,6.38
2023-04-21T12:57:53.029Z,5.53
2023-04-21T12:59:57.365Z,7.75
2023-04-21T13:01:58.936Z,6.15
2023-04-21T13:04:00.724Z,6.20
2023-04-21T13:06:02.441Z,7.40
2023-04-21T13:08:03.960Z,6.43
2023-04-21T13:12:16.405Z,7.40
2023-04-21T13:14:21.004Z,6.60
2023-04-21T13:16:25.874Z,6.13
2023-04-21T13:18:28.753Z,5.90
2023-04-21T13:22:37.069Z,5.90
2023-04-21T13:24:38.612Z,5.93
2023-04-21T13:26:42.785Z,5.57
2023-04-21T13:28:46.851Z,5.55
2023-04-21T13:30:48.685Z,5.57
2023-04-21T13:32:50.266Z,5.18
2023-04-21T13:34:53.846Z,5.60
2023-04-21T13:37:16.160Z,5.32
2023-04-21T13:39:17.905Z,4.50
2023-04-21T13:41:22.615Z,4.57
2023-04-21T13:43:24.270Z,4.18
2023-04-21T13:45:31.790Z,4.65
2023-04-21T13:47:36.259Z,5.13
2023-04-21T13:49:40.922Z,5.28
2023-04-21T13:51:45.305Z,4.50
2023-04-21T13:53:49.704Z,3.88
2023-04-21T13:55:58.353Z,3.65
2023-04-21T13:58:02.796Z,3.67
2023-04-21T14:00:09.183Z,3.55
2023-04-21T14:02:10.711Z,3.42
2023-04-21T14:04:15.075Z,3.47
2023-04-21T14:06:19.451Z,3.83
2023-04-21T14:08:21.064Z,4.45
2023-04-21T14:10:41.135Z,3.55
2023-04-21T14:12:45.277Z,4.18
2023-04-21T14:14:49.657Z,4.10
2023-04-21T14:16:51.516Z,3.75
2023-04-21T14:19:11.467Z,2.67
2023-04-21T14:23:16.974Z,2.75
2023-04-21T14:25:21.450Z,2.70
2023-04-21T14:27:25.691Z,2.17
2023-04-21T14:29:27.398Z,2.90
2023-04-21T14:31:31.796Z,2.42
2023-04-21T14:33:52.167Z,2.83
2023-04-21T14:36:14.706Z,3.10
2023-04-21T14:38:35.713Z,3.42
2023-04-21T14:40:40.143Z,3.20
2023-04-21T14:42:41.641Z,2.90
2023-04-21T14:44:43.236Z,2.83
2023-04-21T14:46:56.921Z,2.30
2023-04-21T14:49:26.158Z,2.53
2023-04-21T14:51:31.941Z,3.05
2023-04-21T14:53:52.226Z,2.78
2023-04-21T14:56:12.543Z,2.80
2023-04-21T14:58:15.510Z,3.22
2023-04-21T15:00:24.340Z,3.70
2023-04-21T15:02:31.879Z,3.30
2023-04-21T15:04:38.811Z,3.63
2023-04-21T15:06:42.678Z,3.58
2023-04-21T15:08:45.685Z,3.70
2023-04-21T15:10:49.612Z,3.53
2023-04-21T15:12:54.296Z,3.45
2023-04-21T15:14:59.269Z,3.40
2023-04-21T15:17:06.738Z,3.47
2023-04-21T15:19:11.072Z,3.05
2023-04-21T15:21:20.502Z,4.28
2023-04-21T15:23:24.010Z,4.22
2023-04-21T15:25:27.783Z,3.78
2023-04-21T15:27:33.654Z,3.40
2023-04-21T15:29:36.919Z,3.45
2023-04-21T15:31:46.872Z,3.70
2023-04-21T15:34:08.902Z,6.03
2023-04-21T15:36:11.134Z,4.30
2023-04-21T15:38:16.064Z,5.13
2023-04-21T15:40:20.711Z,4.45
2023-04-21T15:42:28.241Z,5.05
2023-04-21T15:44:29.771Z,5.00
2023-04-21T15:46:31.324Z,4.38
2023-04-21T15:48:35.383Z,5.28
2023-04-21T15:50:36.908Z,5.25
2023-04-21T15:52:42.574Z,5.78
2023-04-21T15:54:46.989Z,4.97
2023-04-21T15:56:51.351Z,5.10
2023-04-21T15:58:56.002Z,5.20
2023-04-21T16:00:57.584Z,5.38
2023-04-21T16:02:59.302Z,6.07
2023-04-21T16:05:01.439Z,7.13
2023-04-21T16:07:21.842Z,5.15
2023-04-21T16:09:26.501Z,7.70
2023-04-21T16:11:29.294Z,6.80
2023-04-21T16:13:34.665Z,7.22
2023-04-21T16:15:38.956Z,5.70
2023-04-21T16:17:40.589Z,4.88
2023-04-21T16:19:45.586Z,5.35
2023-04-21T16:21:47.288Z,6.57
2023-04-21T16:23:51.632Z,4.85
2023-04-21T16:25:59.232Z,4.95
2023-04-21T16:28:03.358Z,5.35
2023-04-21T16:30:08.017Z,5.78
2023-04-21T16:32:09.858Z,4.85
2023-04-21T16:34:13.751Z,5.60
2023-04-21T16:36:18.128Z,5.28
2023-04-21T16:38:19.864Z,4.93
2023-04-21T16:40:22.391Z,5.63
2023-04-21T16:42:26.760Z,5.03
2023-04-21T16:46:32.566Z,4.82
2023-04-21T16:48:37.328Z,5.10
2023-04-21T16:50:42.036Z,5.15
2023-04-21T16:52:46.703Z,5.30
2023-04-21T16:54:51.426Z,5.68
2023-04-21T16:56:57.602Z,5.68
2023-04-21T16:59:02.068Z,5.00
2023-04-21T17:01:04.926Z,5.05
2023-04-21T17:03:09.315Z,6.22
2023-04-21T17:05:15.677Z,5.50
2023-04-21T17:07:17.448Z,6.10
2023-04-21T17:09:21.617Z,6.38
2023-04-21T17:11:23.017Z,6.30
2023-04-21T17:13:27.087Z,6.07
2023-04-21T17:15:33.008Z,6.07
2023-04-21T17:17:42.055Z,5.72
2023-04-21T17:19:46.289Z,5.60
2023-04-21T17:21:47.873Z,5.68
2023-04-21T17:23:50.444Z,6.72
2023-04-21T17:25:52.212Z,6.00
2023-04-21T17:27:53.756Z,6.15
2023-04-21T17:29:58.024Z,5.43
2023-04-21T17:31:59.526Z,5.68
2023-04-21T17:34:03.766Z,6.13
2023-04-21T17:36:08.274Z,6.20
2023-04-21T17:38:09.824Z,7.07
2023-04-21T17:40:14.257Z,6.47
2023-04-21T17:42:18.693Z,6.78
2023-04-21T17:44:23.076Z,6.60
2023-04-21T17:46:25.477Z,6.15
2023-04-21T17:48:27.500Z,6.82
2023-04-21T17:50:31.174Z,7.38
2023-04-21T17:52:35.784Z,6.70
2023-04-21T17:54:40.582Z,6.40
2023-04-21T17:56:42.624Z,6.78
2023-04-21T17:58:47.020Z,6.25
2023-04-21T18:00:48.877Z,6.18
2023-04-21T18:02:53.468Z,6.97
2023-04-21T18:05:03.060Z,7.45
2023-04-21T18:07:11.814Z,7.35
2023-04-21T18:09:29.265Z,7.03
2023-04-21T18:11:40.602Z,6.55
2023-04-21T18:13:57.250Z,5.82
2023-04-21T18:16:12.768Z,6.22
2023-04-21T18:18:23.076Z,6.07
2023-04-21T18:20:37.296Z,6.47
2023-04-21T18:22:43.881Z,7.38
2023-04-21T18:24:53.768Z,6.25
2023-04-21T18:27:01.460Z,6.82
2023-04-21T18:29:07.154Z,5.95
2023-04-21T18:31:11.209Z,5.55
2023-04-21T18:33:24.053Z,5.90
2023-04-21T18:35:35.491Z,5.43
2023-04-21T18:37:41.952Z,5.22
2023-04-21T18:39:48.069Z,5.63
2023-04-21T18:42:09.117Z,6.13
2023-04-21T18:44:13.972Z,5.10
2023-04-21T18:46:18.266Z,5.60
2023-04-21T18:48:22.611Z,5.38
2023-04-21T18:50:24.330Z,6.43
2023-04-21T18:52:25.976Z,5.50
2023-04-21T18:54:30.293Z,6.00
2023-04-21T18:56:32.696Z,6.25
2023-04-21T18:58:37.062Z,6.20
2023-04-21T19:00:39.344Z,5.85
2023-04-21T19:02:48.515Z,7.85
2023-04-21T19:04:53.386Z,7.10
2023-04-21T19:06:55.001Z,8.20
2023-04-21T19:09:00.250Z,11.85
2023-04-21T19:11:04.425Z,10.48
2023-04-21T19:13:05.994Z,10.77
2023-04-21T19:15:08.255Z,10.50
2023-04-21T19:17:12.377Z,10.68
2023-04-21T19:19:19.483Z,8.32
2023-04-21T19:21:21.165Z,11.43
2023-04-21T19:23:23.396Z,10.20
2023-04-21T19:25:25.045Z,9.68
2023-04-21T19:27:26.477Z,10.50
2023-04-21T19:29:28.082Z,9.65
2023-04-21T19:31:30.059Z,10.00
2023-04-21T19:33:37.721Z,8.95
2023-04-21T19:35:42.581Z,8.88
2023-04-21T19:37:44.140Z,9.82
2023-04-21T19:41:49.462Z,8.45
2023-04-21T19:45:58.691Z,7.50
2023-04-21T19:48:04.436Z,9.50
2023-04-21T19:50:12.847Z,8.40
2023-04-21T19:52:14.289Z,8.88
2023-04-21T19:54:34.813Z,9.25
2023-04-21T19:56:36.832Z,8.35
2023-04-21T19:58:40.258Z,8.32
2023-04-21T20:00:46.895Z,7.53
2023-04-21T20:03:07.804Z,7.43
2023-04-21T20:05:27.932Z,7.65
2023-04-21T20:07:29.649Z,8.27
2023-04-21T20:09:34.651Z,7.28
2023-04-21T20:11:36.159Z,7.53
2023-04-21T20:13:41.172Z,8.65
2023-04-21T20:15:45.936Z,7.60
2023-04-21T20:17:49.026Z,7.70
2023-04-21T20:19:56.020Z,7.72
2023-04-21T20:22:16.110Z,6.65
2023-04-21T20:24:20.504Z,7.10
2023-04-21T20:26:22.564Z,7.25
2023-04-21T20:28:24.241Z,6.80
2023-04-21T20:30:25.881Z,7.68
2023-04-21T20:32:30.298Z,8.00
2023-04-21T20:34:36.211Z,9.00
2023-04-21T20:36:37.765Z,13.68
2023-04-21T20:38:42.060Z,10.77
2023-04-21T20:40:50.226Z,10.07
2023-04-21T20:42:54.348Z,8.07
2023-04-21T20:45:06.737Z,8.25
2023-04-21T20:47:11.665Z,9.70
2023-04-21T20:49:16.411Z,10.40
2023-04-21T20:51:20.808Z,12.38
2023-04-21T20:53:22.426Z,10.63
2023-04-21T20:55:26.722Z,9.32
2023-04-21T20:57:28.345Z,8.38
2023-04-21T20:59:32.680Z,8.80
2023-04-21T21:01:39.963Z,9.43
2023-04-21T21:03:41.876Z,6.78
2023-04-21T21:05:48.009Z,7.70
2023-04-21T21:07:49.698Z,7.30
2023-04-21T21:09:56.886Z,7.88
2023-04-21T21:12:05.369Z,7.85
2023-04-21T21:14:08.985Z,7.85
2023-04-21T21:16:31.721Z,7.43
2023-04-21T21:20:43.170Z,9.07
2023-04-21T21:22:46.901Z,9.50
2023-04-21T21:24:51.299Z,9.98
2023-04-21T21:26:58.394Z,9.88
2023-04-21T21:29:02.576Z,10.95
2023-04-21T21:31:24.761Z,11.07
2023-04-21T21:33:28.663Z,12.30
2023-04-21T21:35:35.501Z,11.70
2023-04-21T21:37:57.261Z,10.60
2023-04-21T21:40:04.064Z,11.35
2023-04-21T21:42:10.590Z,12.40
2023-04-21T21:44:17.009Z,15.35
2023-04-21T21:46:22.221Z,10.27
2023-04-21T21:48:26.742Z,8.15
2023-04-21T21:50:28.213Z,7.25
2023-04-21T21:52:32.632Z,6.28
2023-04-21T21:54:34.105Z,5.95
2023-04-21T21:56:36.721Z,7.88
2023-04-21T21:58:38.167Z,7.95
2023-04-21T22:02:44.417Z,8.50
2023-04-21T22:04:49.493Z,8.55
2023-04-21T22:06:51.998Z,7.75
2023-04-21T22:08:56.272Z,6.72
2023-04-21T22:13:03.393Z,8.25
2023-04-21T22:15:07.923Z,6.88
2023-04-21T22:17:10.458Z,7.32
2023-04-21T22:19:12.594Z,7.10
2023-04-21T22:21:16.733Z,7.13
2023-04-21T22:23:19.758Z,7.18
2023-04-21T22:25:29.659Z,6.75
2023-04-21T22:27:33.831Z,7.57
2023-04-21T22:29:35.399Z,7.20
2023-04-21T22:33:59.358Z,9.30
2023-04-21T22:36:00.874Z,7.13
2023-04-21T22:40:07.121Z,8.15
2023-04-21T22:42:11.221Z,8.40
2023-04-21T22:44:13.366Z,8.88
2023-04-21T22:46:17.442Z,7.43
2023-04-21T22:50:23.102Z,7.72
2023-04-21T22:52:26.731Z,8.75
2023-04-21T22:54:28.312Z,8.57
2023-04-21T22:56:32.724Z,8.20
2023-04-21T22:58:53.027Z,10.25
2023-04-21T23:00:54.577Z,9.63
2023-04-21T23:02:59.514Z,8.60
2023-04-21T23:05:01.183Z,8.98
2023-04-21T23:07:03.189Z,9.50
2023-04-21T23:09:07.426Z,9.63
2023-04-21T23:13:15.874Z,8.18
2023-04-21T23:17:24.310Z,8.73
2023-04-21T23:19:25.776Z,10.38
2023-04-21T23:21:46.504Z,9.57
2023-04-21T23:23:50.916Z,10.23
2023-04-21T23:25:55.401Z,10.77
2023-04-21T23:30:04.292Z,10.93
2023-04-21T23:32:08.642Z,12.63
2023-04-21T23:34:13.319Z,11.45
2023-04-21T23:38:21.558Z,10.70
2023-04-21T23:40:25.826Z,11.02
2023-04-21T23:42:27.292Z,11.07
2023-04-21T23:44:31.642Z,9.90
2023-04-21T23:46:33.170Z,10.45
2023-04-21T23:48:53.543Z,9.77
2023-04-21T23:50:55.309Z,10.38
2023-04-21T23:53:15.528Z,10.38
2023-04-21T23:55:35.858Z,8.77
2023-04-21T23:57:38.161Z,8.20
2023-04-21T23:59:42.547Z,8.55
